aviador You're here:

LFMI Decoded Metar

ISTRES in FRANCE
Report Time2018-06-17 23:30:00
UTC Time2018-06-17 23:51:34
Flight Rules vfr VFR
Wind320° at 23 kt
W.Decomp.*RWY 33: 22.7 kt HW 4 kt LCW
W.Rank320° ranks 4
Current wind is above 320° avg. (13.3)
Visibility9999 m
Phenomena:N/A
Clouds:N/A
Expected CloudBase > 4,000 ft AGL from Temp-Dew spread
CeilingNone
Temp21°C (ISA +6)
Dew Point11°C (53% RH)
AAT13.1°C
QNH1016 hPa
Density Alt873 ft
Elevation79 ft
Report Wrong Elevation
Raw Report
LFMI 172330Z AUTO 32023KT CAVOK 21/11 Q1016 TEMPO 34025G35KT=

Extra information for LFMI:More info

Metar Taf Metar & Taf Last 4 Metars F.Rules Stats Wind Profile Meteogram Temp Stats Airport Information Weather charts Add Link Nearby VenuesMetar ALERT Operation Metar Decoded Social comments